createdAt,value
2022-11-29T00:01:42.058Z,11.50
2022-11-29T00:04:10.717Z,11.40
2022-11-29T00:06:39.742Z,11.40
2022-11-29T00:09:11.570Z,11.60
2022-11-29T00:11:59.057Z,11.50
2022-11-29T00:14:28.515Z,11.30
2022-11-29T00:17:02.043Z,11.60
2022-11-29T00:19:31.109Z,11.40
2022-11-29T00:21:59.340Z,11.50
2022-11-29T00:24:27.957Z,12.20
2022-11-29T00:26:56.130Z,11.40
2022-11-29T00:29:25.328Z,11.30
2022-11-29T00:31:53.573Z,11.20
2022-11-29T00:34:23.211Z,11.00
2022-11-29T00:36:51.404Z,11.20
2022-11-29T00:39:19.984Z,11.20
2022-11-29T00:41:48.158Z,11.20
2022-11-29T00:44:20.126Z,11.40
2022-11-29T00:46:49.226Z,11.30
2022-11-29T00:49:17.627Z,11.30
2022-11-29T00:51:47.528Z,11.40
2022-11-29T00:54:16.003Z,11.30
2022-11-29T00:56:44.474Z,11.20
2022-11-29T00:59:12.640Z,11.10
2022-11-29T01:01:41.008Z,11.60
2022-11-29T01:04:09.446Z,11.30
2022-11-29T01:06:37.723Z,11.30
2022-11-29T01:09:07.286Z,11.20
2022-11-29T01:11:35.448Z,11.80
2022-11-29T01:14:04.494Z,11.30
2022-11-29T01:16:34.439Z,11.10
2022-11-29T01:19:02.639Z,11.20
2022-11-29T01:21:31.418Z,11.30
2022-11-29T01:24:00.378Z,11.70
2022-11-29T01:26:31.378Z,11.50
2022-11-29T01:29:00.154Z,11.20
2022-11-29T01:31:30.267Z,11.30
2022-11-29T01:34:00.649Z,11.20
2022-11-29T01:36:29.495Z,11.40
2022-11-29T01:38:59.340Z,11.50
2022-11-29T01:41:30.737Z,11.40
2022-11-29T01:44:01.955Z,11.30
2022-11-29T01:46:32.355Z,11.30
2022-11-29T01:49:04.067Z,11.30
2022-11-29T01:51:33.792Z,11.50
2022-11-29T01:54:02.008Z,11.70
2022-11-29T01:56:33.745Z,11.80
2022-11-29T01:59:03.767Z,11.80
2022-11-29T02:01:32.568Z,12.60
2022-11-29T02:04:01.291Z,11.90
2022-11-29T02:06:30.441Z,11.70
2022-11-29T02:08:58.823Z,11.40
2022-11-29T02:11:50.648Z,11.70
2022-11-29T02:14:33.839Z,11.80
2022-11-29T02:17:08.375Z,11.70
2022-11-29T02:20:01.691Z,11.30
2022-11-29T02:22:38.396Z,11.40
2022-11-29T02:25:25.793Z,11.50
2022-11-29T02:28:30.806Z,11.70
2022-11-29T02:31:24.767Z,11.40
2022-11-29T02:34:12.035Z,11.90
2022-11-29T02:36:57.111Z,11.60
2022-11-29T02:39:51.111Z,11.60
2022-11-29T02:42:56.278Z,11.50
2022-11-29T02:45:48.192Z,11.50
2022-11-29T02:48:30.284Z,11.40
2022-11-29T02:51:07.910Z,11.40
2022-11-29T02:53:41.653Z,11.40
2022-11-29T02:56:16.485Z,11.40
2022-11-29T02:58:51.436Z,11.30
2022-11-29T03:01:26.912Z,11.20
2022-11-29T03:04:04.740Z,11.60
2022-11-29T03:06:40.804Z,11.40
2022-11-29T03:09:17.821Z,11.30
2022-11-29T03:11:52.595Z,11.40
2022-11-29T03:14:27.733Z,11.40
2022-11-29T03:17:05.036Z,12.10
2022-11-29T03:19:46.815Z,11.30
2022-11-29T03:22:27.437Z,11.00
2022-11-29T03:25:02.882Z,11.00
2022-11-29T03:27:40.199Z,10.90
2022-11-29T03:30:11.732Z,11.10
2022-11-29T03:32:46.575Z,11.00
2022-11-29T03:35:20.798Z,10.90
2022-11-29T03:37:58.856Z,10.90
2022-11-29T03:40:32.516Z,10.70
2022-11-29T03:43:05.436Z,10.70
2022-11-29T03:45:40.214Z,10.90
2022-11-29T03:48:12.682Z,10.80
2022-11-29T03:50:44.576Z,10.90
2022-11-29T03:53:21.275Z,11.00
2022-11-29T03:55:54.078Z,11.30
2022-11-29T03:58:45.428Z,11.10
2022-11-29T04:01:34.637Z,11.40
2022-11-29T04:04:39.254Z,11.20
2022-11-29T04:07:20.429Z,11.20
2022-11-29T04:10:17.281Z,11.00
2022-11-29T04:13:16.374Z,11.10
2022-11-29T04:16:20.772Z,11.10
2022-11-29T04:19:36.764Z,11.20
2022-11-29T04:22:28.763Z,11.20
2022-11-29T04:25:28.202Z,11.30
2022-11-29T04:28:29.529Z,11.40
2022-11-29T04:31:07.880Z,11.10
2022-11-29T04:34:10.199Z,11.00
2022-11-29T04:37:09.750Z,11.00
2022-11-29T04:40:03.972Z,11.10
2022-11-29T04:43:04.943Z,11.40
2022-11-29T04:45:54.771Z,11.20
2022-11-29T04:48:50.582Z,11.20
2022-11-29T04:51:29.390Z,11.30
2022-11-29T04:54:06.371Z,12.20
2022-11-29T04:56:41.693Z,11.40
2022-11-29T04:59:16.652Z,11.50
2022-11-29T05:01:59.644Z,11.30
2022-11-29T05:04:37.255Z,11.20
2022-11-29T05:07:12.913Z,11.60
2022-11-29T05:09:58.893Z,11.20
2022-11-29T05:12:34.172Z,11.20
2022-11-29T05:15:23.534Z,11.30
2022-11-29T05:17:59.796Z,11.20
2022-11-29T05:20:40.197Z,11.30
2022-11-29T05:23:26.869Z,11.20
2022-11-29T05:26:01.118Z,11.10
2022-11-29T05:28:39.287Z,11.00
2022-11-29T05:31:25.039Z,11.70
2022-11-29T05:34:30.366Z,11.00
2022-11-29T05:37:09.569Z,10.80
2022-11-29T05:39:44.401Z,10.70
2022-11-29T05:42:37.451Z,11.10
2022-11-29T05:45:12.085Z,10.90
2022-11-29T05:47:48.972Z,11.00
2022-11-29T05:50:25.655Z,11.00
2022-11-29T05:52:58.777Z,11.20
2022-11-29T05:55:40.248Z,11.10
2022-11-29T05:58:17.328Z,11.30
2022-11-29T06:00:52.742Z,11.30
2022-11-29T06:03:31.094Z,11.40
2022-11-29T06:06:08.087Z,11.40
2022-11-29T06:08:41.328Z,11.40
2022-11-29T06:11:17.028Z,11.40
2022-11-29T06:14:01.340Z,11.50
2022-11-29T06:16:56.832Z,11.40
2022-11-29T06:19:54.090Z,11.30
2022-11-29T06:22:40.376Z,11.20
2022-11-29T06:25:24.162Z,11.70
2022-11-29T06:28:08.036Z,11.30
2022-11-29T06:30:53.413Z,11.10
2022-11-29T06:33:26.100Z,11.20
2022-11-29T06:36:15.074Z,11.10
2022-11-29T06:38:45.923Z,11.20
2022-11-29T06:41:19.973Z,11.30
2022-11-29T06:43:48.966Z,11.10
2022-11-29T06:46:25.787Z,11.20
2022-11-29T06:49:02.674Z,11.10
2022-11-29T06:51:35.499Z,11.40
2022-11-29T06:54:15.089Z,11.20
2022-11-29T06:56:50.553Z,11.20
2022-11-29T06:59:33.768Z,11.30
2022-11-29T07:02:06.199Z,11.30
2022-11-29T07:04:49.686Z,11.10
2022-11-29T07:07:21.661Z,10.80
2022-11-29T07:09:54.304Z,11.10
2022-11-29T07:12:22.974Z,11.10
2022-11-29T07:14:51.762Z,11.20
2022-11-29T07:17:29.580Z,11.10
2022-11-29T07:20:09.712Z,11.20
2022-11-29T07:22:49.479Z,11.20
2022-11-29T07:25:28.878Z,10.80
2022-11-29T07:28:06.240Z,10.90
2022-11-29T07:30:43.637Z,11.70
2022-11-29T07:33:19.914Z,11.10
2022-11-29T07:35:56.694Z,11.20
2022-11-29T07:38:45.494Z,11.40
2022-11-29T07:41:22.025Z,11.50
2022-11-29T07:43:57.640Z,11.30
2022-11-29T07:46:26.051Z,11.20
2022-11-29T07:48:54.538Z,10.70
2022-11-29T07:51:22.822Z,10.80
2022-11-29T07:53:51.010Z,11.20
2022-11-29T07:56:20.487Z,11.10
2022-11-29T07:58:51.763Z,10.80
2022-11-29T08:01:20.039Z,10.70
2022-11-29T08:03:48.182Z,10.70
2022-11-29T08:06:16.325Z,10.70
2022-11-29T08:08:44.550Z,11.00
2022-11-29T08:11:14.006Z,11.00
2022-11-29T08:13:43.646Z,11.00
2022-11-29T08:16:17.829Z,11.00
2022-11-29T08:18:46.611Z,10.80
2022-11-29T08:21:18.084Z,10.80
2022-11-29T08:23:46.711Z,11.00
2022-11-29T08:26:16.004Z,11.00
2022-11-29T08:28:46.164Z,11.20
2022-11-29T08:31:14.909Z,11.20
2022-11-29T08:33:44.672Z,11.20
2022-11-29T08:36:15.036Z,11.40
2022-11-29T08:38:46.496Z,11.00
2022-11-29T08:41:16.329Z,10.90
2022-11-29T08:43:46.368Z,11.00
2022-11-29T08:46:18.493Z,10.90
2022-11-29T08:48:47.144Z,11.00
2022-11-29T08:51:16.079Z,11.00
2022-11-29T08:53:43.486Z,10.90
2022-11-29T08:56:59.718Z,10.90
2022-11-29T08:59:02.993Z,10.90
2022-11-29T09:01:31.295Z,11.50
2022-11-29T09:04:03.552Z,11.10
2022-11-29T09:06:34.056Z,11.50
2022-11-29T09:09:02.452Z,11.70
2022-11-29T09:11:33.376Z,12.10
2022-11-29T09:14:04.878Z,11.70
2022-11-29T09:16:36.206Z,11.60
2022-11-29T09:19:04.580Z,11.00
2022-11-29T09:21:36.672Z,10.90
2022-11-29T09:24:07.040Z,10.80
2022-11-29T09:26:37.883Z,10.80
2022-11-29T09:29:11.925Z,11.00
2022-11-29T09:31:40.150Z,10.90
2022-11-29T09:34:08.618Z,10.90
2022-11-29T09:36:37.164Z,11.20
2022-11-29T09:39:05.842Z,11.20
2022-11-29T09:41:48.885Z,11.10
2022-11-29T09:44:30.156Z,11.30
2022-11-29T09:47:05.440Z,11.50
2022-11-29T09:49:57.354Z,11.20
2022-11-29T09:52:37.737Z,11.40
2022-11-29T09:55:24.417Z,11.70
2022-11-29T09:57:54.864Z,11.40
2022-11-29T10:00:24.556Z,11.20
2022-11-29T10:02:59.061Z,11.30
2022-11-29T10:05:31.092Z,11.40
2022-11-29T10:08:03.194Z,11.70
2022-11-29T10:10:40.475Z,11.70
2022-11-29T10:13:18.484Z,11.60
2022-11-29T10:15:51.516Z,11.60
2022-11-29T10:18:23.904Z,11.70
2022-11-29T10:20:58.466Z,11.70
2022-11-29T10:23:34.091Z,11.70
2022-11-29T10:26:07.409Z,11.80
2022-11-29T10:28:38.095Z,11.60
2022-11-29T10:31:20.248Z,11.70
2022-11-29T10:33:49.187Z,11.40
2022-11-29T10:36:27.018Z,11.50
2022-11-29T10:39:00.318Z,11.60
2022-11-29T10:41:28.511Z,11.70
2022-11-29T10:43:58.841Z,11.40
2022-11-29T10:46:32.494Z,12.10
2022-11-29T10:49:03.853Z,12.00
2022-11-29T10:51:34.227Z,11.90
2022-11-29T10:54:21.602Z,12.00
2022-11-29T10:56:50.753Z,12.20
2022-11-29T10:59:24.611Z,12.10
2022-11-29T11:01:54.358Z,12.30
2022-11-29T11:04:31.473Z,12.40
2022-11-29T11:07:02.360Z,12.50
2022-11-29T11:09:35.327Z,12.30
2022-11-29T11:12:07.010Z,12.40
2022-11-29T11:14:38.713Z,12.10
2022-11-29T11:17:22.761Z,11.90
2022-11-29T11:19:57.994Z,12.10
2022-11-29T11:22:27.720Z,12.20
2022-11-29T11:25:01.466Z,12.40
2022-11-29T11:27:32.100Z,13.00
2022-11-29T11:30:01.443Z,11.60
2022-11-29T11:32:31.318Z,11.80
2022-11-29T11:35:01.043Z,11.60
2022-11-29T11:37:30.447Z,11.60
2022-11-29T11:40:00.709Z,11.40
2022-11-29T11:42:42.663Z,11.50
2022-11-29T11:45:28.411Z,11.60
2022-11-29T11:48:00.445Z,11.50
2022-11-29T11:50:31.765Z,11.70
2022-11-29T11:53:04.872Z,11.90
2022-11-29T11:55:40.731Z,11.80
2022-11-29T11:58:18.624Z,11.70
2022-11-29T12:01:05.704Z,11.70
2022-11-29T12:03:45.945Z,11.60
2022-11-29T12:06:40.642Z,11.70
2022-11-29T12:09:18.603Z,11.70
2022-11-29T12:11:55.229Z,11.60
2022-11-29T12:14:32.146Z,11.60
2022-11-29T12:17:09.090Z,11.70
2022-11-29T12:19:47.579Z,12.00
2022-11-29T12:22:21.111Z,12.10
2022-11-29T12:24:56.588Z,12.10
2022-11-29T12:27:24.945Z,12.20
2022-11-29T12:29:53.294Z,12.20
2022-11-29T12:32:56.093Z,12.30
2022-11-29T12:35:45.781Z,12.10
2022-11-29T12:38:34.649Z,12.10
2022-11-29T12:41:12.761Z,12.20
2022-11-29T12:43:54.884Z,12.20
2022-11-29T12:46:26.383Z,11.90
2022-11-29T12:49:05.363Z,12.10
2022-11-29T12:51:56.608Z,12.30
2022-11-29T12:54:36.653Z,12.50
2022-11-29T12:57:12.106Z,12.40
2022-11-29T12:59:57.519Z,12.40
2022-11-29T13:02:35.773Z,12.80
2022-11-29T13:05:17.197Z,12.50
2022-11-29T13:08:00.289Z,12.60
2022-11-29T13:10:42.342Z,12.70
2022-11-29T13:13:20.199Z,12.60
2022-11-29T13:15:54.792Z,12.60
2022-11-29T13:18:27.501Z,12.70
2022-11-29T13:21:02.637Z,12.50
2022-11-29T13:24:07.415Z,12.60
2022-11-29T13:26:30.556Z,12.60
2022-11-29T13:28:59.539Z,12.60
2022-11-29T13:31:27.923Z,12.60
2022-11-29T13:34:02.771Z,12.70
2022-11-29T13:36:43.969Z,12.70
2022-11-29T13:39:24.963Z,12.70
2022-11-29T13:42:05.717Z,12.80
2022-11-29T13:44:38.191Z,12.80
2022-11-29T13:47:09.847Z,12.80
2022-11-29T13:49:55.423Z,12.90
2022-11-29T13:52:40.288Z,12.80
2022-11-29T13:55:23.494Z,12.70
2022-11-29T14:00:51.683Z,12.70
2022-11-29T14:03:39.553Z,12.70
2022-11-29T14:06:18.517Z,12.70
2022-11-29T14:09:19.092Z,12.50
2022-11-29T14:11:52.453Z,12.50
2022-11-29T14:14:27.034Z,12.30
2022-11-29T14:16:58.873Z,12.30
2022-11-29T14:19:33.348Z,12.50
2022-11-29T14:22:23.308Z,12.40
2022-11-29T14:25:50.466Z,12.40
2022-11-29T14:28:33.203Z,12.50
2022-11-29T14:31:02.719Z,12.50
2022-11-29T14:33:52.070Z,13.40
2022-11-29T14:36:40.148Z,12.50
2022-11-29T14:39:27.622Z,12.50
2022-11-29T14:42:06.201Z,12.40
2022-11-29T14:44:44.466Z,12.40
2022-11-29T14:47:32.288Z,12.50
2022-11-29T14:50:06.556Z,12.50
2022-11-29T14:52:38.937Z,12.60
2022-11-29T14:55:10.731Z,12.50
2022-11-29T14:58:15.752Z,12.40
2022-11-29T15:00:56.655Z,12.40
2022-11-29T15:03:32.993Z,12.40
2022-11-29T15:06:08.687Z,12.50
2022-11-29T15:08:42.500Z,13.30
2022-11-29T15:11:17.333Z,12.40
2022-11-29T15:13:55.776Z,12.30
2022-11-29T15:16:46.111Z,12.40
2022-11-29T15:19:41.832Z,12.40
2022-11-29T15:22:16.729Z,12.40
2022-11-29T15:24:53.871Z,12.20
2022-11-29T15:27:22.779Z,12.10
2022-11-29T15:29:52.394Z,12.10
2022-11-29T15:32:30.396Z,12.20
2022-11-29T15:34:59.529Z,12.50
2022-11-29T15:37:42.747Z,13.00
2022-11-29T15:40:16.015Z,12.60
2022-11-29T15:42:47.195Z,12.60
2022-11-29T15:45:26.914Z,12.30
2022-11-29T15:47:57.072Z,12.30
2022-11-29T15:50:26.840Z,12.20
2022-11-29T15:53:00.454Z,12.40
2022-11-29T15:55:29.201Z,12.40
2022-11-29T15:58:03.979Z,12.30
2022-11-29T16:00:37.022Z,12.40
2022-11-29T16:03:07.734Z,12.20
2022-11-29T16:05:38.285Z,12.20
2022-11-29T16:08:09.177Z,12.30
2022-11-29T16:10:44.060Z,12.20
2022-11-29T16:13:34.583Z,12.20
2022-11-29T16:16:22.022Z,12.20
2022-11-29T16:18:52.171Z,12.10
2022-11-29T16:21:26.344Z,12.50
2022-11-29T16:23:55.124Z,12.10
2022-11-29T16:26:28.374Z,12.30
2022-11-29T16:28:57.906Z,12.20
2022-11-29T16:31:32.818Z,12.00
2022-11-29T16:34:08.897Z,12.20
2022-11-29T16:36:37.610Z,12.00
2022-11-29T16:39:08.872Z,12.00
2022-11-29T16:41:39.427Z,11.90
2022-11-29T16:44:23.692Z,11.90
2022-11-29T16:47:11.331Z,12.20
2022-11-29T16:49:40.941Z,12.00
2022-11-29T16:52:25.599Z,12.00
2022-11-29T16:54:53.896Z,11.80
2022-11-29T16:57:22.796Z,11.90
2022-11-29T16:59:51.630Z,12.00
2022-11-29T17:02:20.080Z,11.90
2022-11-29T17:04:51.588Z,11.90
2022-11-29T17:07:24.768Z,11.70
2022-11-29T17:09:53.768Z,11.90
2022-11-29T17:12:22.278Z,12.00
2022-11-29T17:14:50.479Z,11.90
2022-11-29T17:17:20.705Z,11.90
2022-11-29T17:19:50.242Z,11.90
2022-11-29T17:22:18.408Z,12.30
2022-11-29T17:24:48.589Z,11.80
2022-11-29T17:27:17.169Z,12.10
2022-11-29T17:29:45.392Z,11.90
2022-11-29T17:32:13.853Z,11.90
2022-11-29T17:34:42.914Z,11.80
2022-11-29T17:37:12.594Z,11.90
2022-11-29T17:39:44.750Z,12.00
2022-11-29T17:42:13.214Z,12.00
2022-11-29T17:44:41.456Z,12.10
2022-11-29T17:47:09.569Z,11.90
2022-11-29T17:49:37.832Z,11.90
2022-11-29T17:52:06.292Z,11.90
2022-11-29T17:54:36.083Z,11.90
2022-11-29T17:57:04.773Z,11.90
2022-11-29T17:59:32.995Z,11.80
2022-11-29T18:02:04.291Z,11.90
2022-11-29T18:04:32.452Z,11.80
2022-11-29T18:07:01.529Z,11.90
2022-11-29T18:09:29.715Z,12.60
2022-11-29T18:11:59.347Z,12.00
2022-11-29T18:14:29.161Z,12.00
2022-11-29T18:16:57.537Z,11.80
2022-11-29T18:19:25.745Z,11.80
2022-11-29T18:21:54.039Z,11.80
2022-11-29T18:24:23.421Z,11.60
2022-11-29T18:26:51.664Z,11.80
2022-11-29T18:29:24.188Z,11.60
2022-11-29T18:31:52.348Z,11.60
2022-11-29T18:34:20.670Z,11.60
2022-11-29T18:36:50.181Z,11.60
2022-11-29T18:39:20.828Z,11.80
2022-11-29T18:41:50.357Z,11.90
2022-11-29T18:44:21.570Z,11.90
2022-11-29T18:46:51.341Z,12.00
2022-11-29T18:49:19.812Z,12.00
2022-11-29T18:51:49.580Z,12.00
2022-11-29T18:54:19.442Z,11.80
2022-11-29T18:56:50.548Z,11.80
2022-11-29T18:59:18.945Z,11.90
2022-11-29T19:01:48.652Z,11.90
2022-11-29T19:04:20.731Z,11.80
2022-11-29T19:06:49.551Z,11.90
2022-11-29T19:09:21.027Z,11.90
2022-11-29T19:11:50.109Z,11.80
2022-11-29T19:14:18.851Z,11.80
2022-11-29T19:16:49.427Z,11.60
2022-11-29T19:19:19.932Z,11.60
2022-11-29T19:21:48.347Z,11.60
2022-11-29T19:24:18.199Z,11.50
2022-11-29T19:26:50.032Z,11.60
2022-11-29T19:29:18.762Z,11.50
2022-11-29T19:31:47.005Z,11.70
2022-11-29T19:34:15.309Z,11.60
2022-11-29T19:36:45.549Z,11.60
2022-11-29T19:39:15.522Z,11.60
2022-11-29T19:41:45.200Z,11.70
2022-11-29T19:44:14.061Z,11.60
2022-11-29T19:46:45.712Z,11.80
2022-11-29T19:49:13.937Z,11.80
2022-11-29T19:51:42.380Z,11.80
2022-11-29T19:54:12.378Z,11.60
2022-11-29T19:56:43.796Z,11.50
2022-11-29T19:59:12.337Z,11.60
2022-11-29T20:01:42.721Z,11.60
2022-11-29T20:04:13.366Z,11.50
2022-11-29T20:06:42.121Z,11.60
2022-11-29T20:09:13.426Z,11.60
2022-11-29T20:11:41.784Z,11.70
2022-11-29T20:14:12.370Z,11.80
2022-11-29T20:16:40.544Z,11.80
2022-11-29T20:19:10.860Z,11.80
2022-11-29T20:21:42.456Z,11.80
2022-11-29T20:24:13.050Z,11.60
2022-11-29T20:26:42.308Z,11.70
2022-11-29T20:29:11.663Z,11.70
2022-11-29T20:31:45.981Z,11.70
2022-11-29T20:34:17.915Z,11.80
2022-11-29T20:37:02.331Z,11.80
2022-11-29T20:39:41.323Z,11.70
2022-11-29T20:42:32.543Z,11.80
2022-11-29T20:45:02.367Z,11.70
2022-11-29T20:47:51.931Z,11.80
2022-11-29T20:50:23.826Z,11.70
2022-11-29T20:53:14.252Z,11.80
2022-11-29T20:55:48.025Z,11.90
2022-11-29T20:58:16.871Z,11.80
2022-11-29T21:00:45.064Z,11.70
2022-11-29T21:03:14.698Z,11.70
2022-11-29T21:05:42.958Z,11.70
2022-11-29T21:08:11.213Z,11.60
2022-11-29T21:10:39.334Z,11.60
2022-11-29T21:13:13.570Z,11.50
2022-11-29T21:15:42.679Z,11.60
2022-11-29T21:18:21.641Z,11.60
2022-11-29T21:20:57.298Z,11.50
2022-11-29T21:23:34.990Z,11.50
2022-11-29T21:26:09.115Z,11.50
2022-11-29T21:28:47.221Z,11.90
2022-11-29T21:31:17.671Z,11.40
2022-11-29T21:33:46.441Z,11.40
2022-11-29T21:36:14.871Z,11.40
2022-11-29T21:38:43.172Z,12.20
2022-11-29T21:41:11.342Z,11.40
2022-11-29T21:44:05.608Z,11.30
2022-11-29T21:46:29.534Z,11.40
2022-11-29T21:48:57.732Z,11.30
2022-11-29T21:51:25.885Z,11.20
2022-11-29T21:53:54.104Z,11.10
2022-11-29T21:56:22.256Z,11.10
2022-11-29T21:58:51.877Z,11.00
2022-11-29T22:01:21.686Z,11.00
2022-11-29T22:03:52.962Z,11.00
2022-11-29T22:06:24.058Z,11.00
2022-11-29T22:08:52.233Z,11.00
2022-11-29T22:11:30.930Z,11.20
2022-11-29T22:14:18.368Z,11.20
2022-11-29T22:16:48.660Z,11.20
2022-11-29T22:19:19.016Z,12.10
2022-11-29T22:21:48.993Z,11.20
2022-11-29T22:24:19.091Z,11.20
2022-11-29T22:26:48.323Z,11.30
2022-11-29T22:29:18.308Z,11.40
2022-11-29T22:31:48.542Z,11.30
2022-11-29T22:34:16.885Z,11.40
2022-11-29T22:36:45.124Z,11.40
2022-11-29T22:39:14.202Z,11.80
2022-11-29T22:41:42.901Z,11.60
2022-11-29T22:44:11.076Z,11.60
2022-11-29T22:46:41.550Z,11.70
2022-11-29T22:49:10.557Z,11.50
2022-11-29T22:51:39.392Z,11.50
2022-11-29T22:54:09.105Z,11.60
2022-11-29T22:56:39.032Z,11.50
2022-11-29T22:59:10.423Z,11.70
2022-11-29T23:01:41.118Z,11.80
2022-11-29T23:04:11.069Z,11.70
2022-11-29T23:06:41.367Z,11.40
2022-11-29T23:09:15.223Z,11.30
2022-11-29T23:11:45.055Z,11.50
2022-11-29T23:14:13.907Z,11.50
2022-11-29T23:16:44.435Z,11.60
2022-11-29T23:19:12.718Z,11.30
2022-11-29T23:21:42.077Z,11.60
2022-11-29T23:24:10.571Z,11.40
2022-11-29T23:26:40.842Z,11.40
2022-11-29T23:29:11.694Z,11.40
2022-11-29T23:31:40.394Z,11.60
2022-11-29T23:34:10.293Z,11.60
2022-11-29T23:36:38.461Z,11.60
2022-11-29T23:39:07.463Z,11.80
2022-11-29T23:41:35.695Z,11.70
2022-11-29T23:44:04.632Z,11.80
2022-11-29T23:46:32.972Z,11.80
2022-11-29T23:49:01.141Z,11.90
2022-11-29T23:51:30.901Z,11.80
2022-11-29T23:53:59.813Z,11.80
2022-11-29T23:56:28.015Z,11.70
2022-11-29T23:58:56.214Z,11.60
